Avalon, California
Current Conditions -  °F | °C
As of 9:51 AM on Thursday 29 Jan 2015 (Local Time) from KAVX Reporting Station
Scattered Clouds Scattered Clouds  
Wind Chill: 66°   Ceiling: Unl
Heat Index: 66°   Visibility: 10mi
Dew Point: 44°   Wind: 0mph
Humidity: 45%   Direction: NA
Pressure: 30.1"   Gusts: NA
Location:  33.34°N, 118.33°W
Report Text: KAVX 291751Z AUTO 00000KT 10SM SCT120 19/07 A3010 RMK AO2 SLP177 T01890067 10189 20156 53011
Loading
Personal Weather Stations






























Interactive Weather Map New forecast layout! Learn more

10-Day Weather Forecast

Advertisements
Track Severe Weather on mobile